createdAt,value
2023-03-05T17:00:11.653Z,100135.22
2023-03-05T17:02:38.828Z,100136.19
2023-03-05T17:05:06.162Z,100131.03
2023-03-05T17:07:33.040Z,100122.59
2023-03-05T17:09:59.890Z,100138.03
2023-03-05T17:12:26.790Z,100137.16
2023-03-05T17:14:53.611Z,100137.28
2023-03-05T17:17:20.496Z,100106.31
2023-03-05T17:19:49.228Z,100137.31
2023-03-05T17:22:16.678Z,100143.44
2023-03-05T17:24:43.697Z,100145.16
2023-03-05T17:27:10.592Z,100139.09
2023-03-05T17:29:37.596Z,100137.34
2023-03-05T17:32:04.925Z,100139.13
2023-03-05T17:34:36.621Z,100099.47
2023-03-05T17:37:05.156Z,100142.69
2023-03-05T17:39:32.423Z,100136.59
2023-03-05T17:41:59.596Z,100118.53
2023-03-05T17:44:26.468Z,100120.16
2023-03-05T17:46:53.452Z,100134.97
2023-03-05T17:49:20.302Z,100133.28
2023-03-05T17:51:47.366Z,100128.91
2023-03-05T17:54:14.425Z,100128.97
2023-03-05T17:56:41.342Z,100124.66
2023-03-05T17:59:08.265Z,100123.88
2023-03-05T18:01:35.480Z,100122.22
2023-03-05T18:04:02.841Z,100114.50
2023-03-05T18:06:29.806Z,100129.13
2023-03-05T18:08:56.726Z,100092.25
2023-03-05T18:11:23.727Z,100129.22
2023-03-05T18:13:50.633Z,100121.44
2023-03-05T18:16:18.312Z,100079.31
2023-03-05T18:18:45.433Z,100125.81
2023-03-05T18:21:12.406Z,100121.50
2023-03-05T18:23:39.347Z,100120.66
2023-03-05T18:26:06.316Z,100117.22
2023-03-05T18:28:33.439Z,100075.84
2023-03-05T18:31:21.183Z,100116.41
2023-03-05T18:34:08.123Z,100119.06
2023-03-05T18:36:54.944Z,100115.63
2023-03-05T18:39:41.943Z,100120.03
2023-03-05T18:42:32.557Z,100119.19
2023-03-05T18:45:19.542Z,100113.16
2023-03-05T18:48:06.444Z,100118.44
2023-03-05T18:50:53.638Z,100121.09
2023-03-05T18:53:41.313Z,100123.78
2023-03-05T18:56:28.931Z,100116.00
2023-03-05T18:59:15.751Z,100116.94
2023-03-05T19:02:02.563Z,100104.94
2023-03-05T19:04:49.550Z,100118.75
2023-03-05T19:07:36.580Z,100117.06
2023-03-05T19:10:28.952Z,100118.84
2023-03-05T19:13:35.775Z,100118.03
2023-03-05T19:16:32.436Z,100107.69
2023-03-05T19:19:33.259Z,100116.41
2023-03-05T19:22:20.111Z,100125.19
2023-03-05T19:25:07.195Z,100123.47
2023-03-05T19:27:54.493Z,100129.63
2023-03-05T19:30:41.515Z,100120.09
2023-03-05T19:33:28.409Z,100116.69
2023-03-05T19:36:15.217Z,100115.00
2023-03-05T19:39:02.166Z,100119.41
2023-03-05T19:41:49.210Z,100110.81
2023-03-05T19:44:36.212Z,100124.72
2023-03-05T19:47:23.374Z,100121.28
2023-03-05T19:50:10.324Z,100118.72
2023-03-05T19:52:57.187Z,100116.19
2023-03-05T19:55:44.011Z,100118.84
2023-03-05T19:58:30.925Z,100117.22
2023-03-05T20:01:28.071Z,100118.09
2023-03-05T20:04:17.263Z,100117.28
2023-03-05T20:07:04.458Z,100112.97
2023-03-05T20:09:51.427Z,100123.50
2023-03-05T20:12:38.316Z,100118.31
2023-03-05T20:15:25.697Z,100120.13
2023-03-05T20:18:12.870Z,100114.16
2023-03-05T20:20:59.734Z,100102.94
2023-03-05T20:23:46.521Z,100102.13
2023-03-05T20:26:33.877Z,100110.00
2023-03-05T20:29:21.327Z,100103.22
2023-03-05T20:32:08.818Z,100111.84
2023-03-05T20:34:55.747Z,100115.34
2023-03-05T20:37:56.392Z,100104.13
2023-03-05T20:40:43.337Z,100106.75
2023-03-05T20:43:30.318Z,100097.19
2023-03-05T20:46:19.012Z,100102.41
2023-03-05T20:49:07.964Z,100097.22
2023-03-05T20:51:57.362Z,100088.63
2023-03-05T20:54:44.381Z,100096.41
2023-03-05T20:57:31.273Z,100092.09
2023-03-05T21:00:18.212Z,100093.84
2023-03-05T21:03:05.201Z,100081.81
2023-03-05T21:05:52.668Z,100095.66
2023-03-05T21:08:39.526Z,100093.06
2023-03-05T21:11:28.673Z,100089.63
2023-03-05T21:14:15.628Z,100091.38
2023-03-05T21:17:02.545Z,100089.72
2023-03-05T21:19:50.031Z,100096.69
2023-03-05T21:22:37.043Z,100027.03
2023-03-05T21:25:42.471Z,100112.44
2023-03-05T21:28:33.251Z,100108.13
2023-03-05T21:31:26.953Z,100112.50
2023-03-05T21:34:14.013Z,100122.13
2023-03-05T21:37:00.910Z,100110.84
2023-03-05T21:39:47.777Z,100105.69
2023-03-05T21:42:34.647Z,100103.09
2023-03-05T21:45:21.782Z,100111.78
2023-03-05T21:48:09.524Z,100105.75
2023-03-05T21:50:59.964Z,100089.34
2023-03-05T21:53:46.901Z,100107.50
2023-03-05T21:56:47.433Z,100106.66
2023-03-05T21:59:34.401Z,100055.03
2023-03-05T22:02:21.678Z,100098.84
2023-03-05T22:05:09.277Z,100105.84
2023-03-05T22:07:56.171Z,100098.84
2023-03-05T22:10:43.329Z,100102.31
2023-03-05T22:13:10.881Z,100103.19
2023-03-05T22:16:17.962Z,100101.50
2023-03-05T22:19:05.037Z,100102.31
2023-03-05T22:21:52.095Z,100096.22
2023-03-05T22:24:38.954Z,100093.69
2023-03-05T22:27:28.066Z,100089.31
2023-03-05T22:30:15.202Z,100092.78
2023-03-05T22:33:02.164Z,100092.75
2023-03-05T22:35:49.208Z,100096.22
2023-03-05T22:38:36.599Z,100032.53
2023-03-05T22:41:28.057Z,100093.69
2023-03-05T22:44:15.016Z,100096.22
2023-03-05T22:47:01.997Z,100098.78
2023-03-05T22:49:48.974Z,100055.72
2023-03-05T22:52:35.902Z,100076.38
2023-03-05T22:55:22.845Z,100089.22
2023-03-05T22:58:09.764Z,100081.44
2023-03-05T23:00:57.597Z,100087.53
2023-03-05T23:03:44.693Z,100084.84
2023-03-05T23:06:49.860Z,100081.22
2023-03-05T23:09:36.799Z,100082.06
2023-03-05T23:12:24.044Z,100089.91
2023-03-05T23:15:10.941Z,100083.00
2023-03-05T23:17:57.947Z,100072.56
2023-03-05T23:20:47.828Z,100070.00
2023-03-05T23:23:34.738Z,100056.97
2023-03-05T23:26:21.765Z,100055.28
2023-03-05T23:29:08.795Z,100050.03
2023-03-05T23:31:55.688Z,100061.38
2023-03-05T23:34:42.855Z,100057.03
2023-03-05T23:37:29.814Z,100047.53
2023-03-05T23:40:16.721Z,100046.69
2023-03-05T23:43:04.282Z,100044.19
2023-03-05T23:45:52.764Z,100040.78
2023-03-05T23:48:39.831Z,100051.97
2023-03-05T23:51:31.110Z,100043.50
2023-03-05T23:54:18.168Z,100015.88
2023-03-05T23:57:05.149Z,100000.47
2023-03-05T23:59:52.230Z,100053.91
